sensor_id;sensor_type;location;lat;lon;timestamp;P1;durP1;ratioP1;P2;durP2;ratioP2
30850;SDS011;17567;48.382;9.102;2023-05-15T00:02:17;4.77;;;4.30;;
30850;SDS011;17567;48.382;9.102;2023-05-15T00:07:18;6.83;;;4.30;;
30850;SDS011;17567;48.382;9.102;2023-05-15T00:12:18;6.40;;;4.63;;
30850;SDS011;17567;48.382;9.102;2023-05-15T00:17:19;5.73;;;5.10;;
30850;SDS011;17567;48.382;9.102;2023-05-15T00:22:20;5.40;;;4.93;;
30850;SDS011;17567;48.382;9.102;2023-05-15T00:27:21;6.40;;;5.80;;
30850;SDS011;17567;48.382;9.102;2023-05-15T00:32:21;7.37;;;5.17;;
30850;SDS011;17567;48.382;9.102;2023-05-15T00:37:22;7.07;;;4.80;;
30850;SDS011;17567;48.382;9.102;2023-05-15T00:42:22;5.37;;;4.43;;
30850;SDS011;17567;48.382;9.102;2023-05-15T00:47:23;5.83;;;5.33;;
30850;SDS011;17567;48.382;9.102;2023-05-15T00:52:26;5.03;;;4.57;;
30850;SDS011;17567;48.382;9.102;2023-05-15T00:57:28;5.77;;;5.27;;
30850;SDS011;17567;48.382;9.102;2023-05-15T01:02:30;5.90;;;5.40;;
30850;SDS011;17567;48.382;9.102;2023-05-15T01:07:31;5.77;;;5.17;;
30850;SDS011;17567;48.382;9.102;2023-05-15T01:12:39;5.80;;;4.87;;
30850;SDS011;17567;48.382;9.102;2023-05-15T01:17:40;5.90;;;5.10;;
30850;SDS011;17567;48.382;9.102;2023-05-15T01:28:08;7.73;;;4.97;;
30850;SDS011;17567;48.382;9.102;2023-05-15T01:33:22;4.23;;;3.83;;
30850;SDS011;17567;48.382;9.102;2023-05-15T01:43:39;5.43;;;4.93;;
30850;SDS011;17567;48.382;9.102;2023-05-15T01:48:43;5.80;;;5.30;;
30850;SDS011;17567;48.382;9.102;2023-05-15T01:53:45;7.37;;;4.80;;
30850;SDS011;17567;48.382;9.102;2023-05-15T01:58:46;8.93;;;7.10;;
30850;SDS011;17567;48.382;9.102;2023-05-15T02:03:47;6.97;;;6.30;;
30850;SDS011;17567;48.382;9.102;2023-05-15T02:08:48;8.37;;;7.30;;
30850;SDS011;17567;48.382;9.102;2023-05-15T02:13:50;8.87;;;7.20;;
30850;SDS011;17567;48.382;9.102;2023-05-15T02:18:51;8.17;;;6.73;;
30850;SDS011;17567;48.382;9.102;2023-05-15T02:23:52;11.70;;;7.23;;
30850;SDS011;17567;48.382;9.102;2023-05-15T02:28:55;10.03;;;8.67;;
30850;SDS011;17567;48.382;9.102;2023-05-15T02:34:36;7.57;;;6.87;;
30850;SDS011;17567;48.382;9.102;2023-05-15T02:40:02;8.90;;;6.00;;
30850;SDS011;17567;48.382;9.102;2023-05-15T02:45:06;8.77;;;5.77;;
30850;SDS011;17567;48.382;9.102;2023-05-15T02:50:08;6.70;;;6.10;;
30850;SDS011;17567;48.382;9.102;2023-05-15T02:55:09;6.00;;;5.50;;
30850;SDS011;17567;48.382;9.102;2023-05-15T03:00:10;6.77;;;6.13;;
30850;SDS011;17567;48.382;9.102;2023-05-15T03:05:11;7.37;;;6.77;;
30850;SDS011;17567;48.382;9.102;2023-05-15T03:10:12;6.07;;;5.47;;
30850;SDS011;17567;48.382;9.102;2023-05-15T03:15:13;7.90;;;7.13;;
30850;SDS011;17567;48.382;9.102;2023-05-15T03:20:13;6.80;;;5.67;;
30850;SDS011;17567;48.382;9.102;2023-05-15T03:25:14;6.97;;;6.27;;
30850;SDS011;17567;48.382;9.102;2023-05-15T03:30:15;5.97;;;5.37;;
30850;SDS011;17567;48.382;9.102;2023-05-15T03:35:15;5.87;;;5.27;;
30850;SDS011;17567;48.382;9.102;2023-05-15T03:40:16;6.37;;;4.80;;
30850;SDS011;17567;48.382;9.102;2023-05-15T03:45:17;6.40;;;5.80;;
30850;SDS011;17567;48.382;9.102;2023-05-15T03:50:17;8.03;;;7.23;;
30850;SDS011;17567;48.382;9.102;2023-05-15T03:55:18;7.43;;;6.40;;
30850;SDS011;17567;48.382;9.102;2023-05-15T04:00:19;6.90;;;6.20;;
30850;SDS011;17567;48.382;9.102;2023-05-15T04:05:19;6.53;;;5.93;;
30850;SDS011;17567;48.382;9.102;2023-05-15T04:10:20;6.80;;;6.17;;
30850;SDS011;17567;48.382;9.102;2023-05-15T04:15:22;11.93;;;9.43;;
30850;SDS011;17567;48.382;9.102;2023-05-15T04:20:23;11.20;;;8.93;;
30850;SDS011;17567;48.382;9.102;2023-05-15T04:25:24;7.57;;;6.57;;
30850;SDS011;17567;48.382;9.102;2023-05-15T04:30:26;7.70;;;7.00;;
30850;SDS011;17567;48.382;9.102;2023-05-15T04:35:26;7.17;;;6.43;;
30850;SDS011;17567;48.382;9.102;2023-05-15T04:40:27;7.87;;;7.07;;
30850;SDS011;17567;48.382;9.102;2023-05-15T04:45:28;8.63;;;7.80;;
30850;SDS011;17567;48.382;9.102;2023-05-15T04:50:28;11.60;;;9.20;;
30850;SDS011;17567;48.382;9.102;2023-05-15T04:55:29;41.20;;;25.57;;
30850;SDS011;17567;48.382;9.102;2023-05-15T05:00:30;30.93;;;19.70;;
30850;SDS011;17567;48.382;9.102;2023-05-15T05:05:31;24.47;;;16.37;;
30850;SDS011;17567;48.382;9.102;2023-05-15T05:10:31;12.70;;;9.30;;
30850;SDS011;17567;48.382;9.102;2023-05-15T05:15:32;23.43;;;17.30;;
30850;SDS011;17567;48.382;9.102;2023-05-15T05:20:33;10.77;;;9.00;;
30850;SDS011;17567;48.382;9.102;2023-05-15T05:25:33;7.97;;;6.80;;
30850;SDS011;17567;48.382;9.102;2023-05-15T05:30:34;8.17;;;7.37;;
30850;SDS011;17567;48.382;9.102;2023-05-15T05:35:35;8.47;;;6.40;;
30850;SDS011;17567;48.382;9.102;2023-05-15T05:40:35;7.13;;;6.53;;
30850;SDS011;17567;48.382;9.102;2023-05-15T05:45:37;7.83;;;7.13;;
30850;SDS011;17567;48.382;9.102;2023-05-15T05:50:40;7.47;;;6.77;;
30850;SDS011;17567;48.382;9.102;2023-05-15T05:55:41;9.07;;;8.07;;
30850;SDS011;17567;48.382;9.102;2023-05-15T06:00:42;7.50;;;6.80;;
30850;SDS011;17567;48.382;9.102;2023-05-15T06:05:43;9.80;;;8.60;;
30850;SDS011;17567;48.382;9.102;2023-05-15T06:10:43;8.20;;;7.40;;
30850;SDS011;17567;48.382;9.102;2023-05-15T06:15:44;8.23;;;7.37;;
30850;SDS011;17567;48.382;9.102;2023-05-15T06:20:46;7.83;;;7.10;;
30850;SDS011;17567;48.382;9.102;2023-05-15T06:25:46;10.37;;;9.13;;
30850;SDS011;17567;48.382;9.102;2023-05-15T06:30:47;9.57;;;8.50;;
30850;SDS011;17567;48.382;9.102;2023-05-15T06:35:48;9.87;;;8.83;;
30850;SDS011;17567;48.382;9.102;2023-05-15T06:40:48;12.73;;;8.97;;
30850;SDS011;17567;48.382;9.102;2023-05-15T06:45:49;9.73;;;8.80;;
30850;SDS011;17567;48.382;9.102;2023-05-15T06:50:51;10.27;;;9.07;;
30850;SDS011;17567;48.382;9.102;2023-05-15T06:55:51;9.00;;;8.10;;
30850;SDS011;17567;48.382;9.102;2023-05-15T07:00:52;11.50;;;8.40;;
30850;SDS011;17567;48.382;9.102;2023-05-15T07:05:53;12.13;;;8.53;;
30850;SDS011;17567;48.382;9.102;2023-05-15T07:10:53;10.93;;;9.50;;
30850;SDS011;17567;48.382;9.102;2023-05-15T07:15:54;11.10;;;9.50;;
30850;SDS011;17567;48.382;9.102;2023-05-15T07:20:54;9.63;;;8.43;;
30850;SDS011;17567;48.382;9.102;2023-05-15T07:25:55;9.27;;;8.37;;
30850;SDS011;17567;48.382;9.102;2023-05-15T07:30:56;10.93;;;7.80;;
30850;SDS011;17567;48.382;9.102;2023-05-15T07:35:56;8.33;;;7.53;;
30850;SDS011;17567;48.382;9.102;2023-05-15T07:40:57;9.63;;;7.23;;
30850;SDS011;17567;48.382;9.102;2023-05-15T07:45:58;8.57;;;7.77;;
30850;SDS011;17567;48.382;9.102;2023-05-15T07:50:58;9.17;;;8.07;;
30850;SDS011;17567;48.382;9.102;2023-05-15T07:55:59;7.60;;;6.73;;
30850;SDS011;17567;48.382;9.102;2023-05-15T08:01:00;8.10;;;7.30;;
30850;SDS011;17567;48.382;9.102;2023-05-15T08:06:00;8.70;;;7.93;;
30850;SDS011;17567;48.382;9.102;2023-05-15T08:11:01;8.90;;;8.00;;
30850;SDS011;17567;48.382;9.102;2023-05-15T08:16:02;9.17;;;8.27;;
30850;SDS011;17567;48.382;9.102;2023-05-15T08:21:02;7.53;;;6.87;;
30850;SDS011;17567;48.382;9.102;2023-05-15T08:26:03;9.40;;;6.50;;
30850;SDS011;17567;48.382;9.102;2023-05-15T08:31:04;12.80;;;8.03;;
30850;SDS011;17567;48.382;9.102;2023-05-15T08:36:04;7.80;;;7.03;;
30850;SDS011;17567;48.382;9.102;2023-05-15T08:41:07;6.87;;;6.07;;
30850;SDS011;17567;48.382;9.102;2023-05-15T08:46:12;10.13;;;7.43;;
30850;SDS011;17567;48.382;9.102;2023-05-15T08:51:13;7.40;;;6.70;;
30850;SDS011;17567;48.382;9.102;2023-05-15T08:56:17;7.93;;;5.40;;
30850;SDS011;17567;48.382;9.102;2023-05-15T09:01:18;10.23;;;5.77;;
30850;SDS011;17567;48.382;9.102;2023-05-15T09:06:19;6.27;;;5.73;;
30850;SDS011;17567;48.382;9.102;2023-05-15T09:11:21;6.50;;;5.90;;
30850;SDS011;17567;48.382;9.102;2023-05-15T09:16:23;6.13;;;5.63;;
30850;SDS011;17567;48.382;9.102;2023-05-15T09:21:27;6.93;;;5.57;;
30850;SDS011;17567;48.382;9.102;2023-05-15T09:26:30;5.63;;;5.00;;
30850;SDS011;17567;48.382;9.102;2023-05-15T09:31:31;5.87;;;5.37;;
30850;SDS011;17567;48.382;9.102;2023-05-15T09:36:32;6.17;;;5.57;;
30850;SDS011;17567;48.382;9.102;2023-05-15T09:41:33;6.57;;;5.10;;
30850;SDS011;17567;48.382;9.102;2023-05-15T09:46:34;4.80;;;4.40;;
30850;SDS011;17567;48.382;9.102;2023-05-15T09:51:36;5.47;;;4.97;;
30850;SDS011;17567;48.382;9.102;2023-05-15T09:56:37;5.80;;;5.20;;
30850;SDS011;17567;48.382;9.102;2023-05-15T10:01:37;5.87;;;5.37;;
30850;SDS011;17567;48.382;9.102;2023-05-15T10:06:42;6.63;;;5.37;;
30850;SDS011;17567;48.382;9.102;2023-05-15T10:11:50;5.20;;;4.80;;
30850;SDS011;17567;48.382;9.102;2023-05-15T10:16:54;5.20;;;4.80;;
30850;SDS011;17567;48.382;9.102;2023-05-15T10:21:55;5.93;;;5.43;;
30850;SDS011;17567;48.382;9.102;2023-05-15T10:27:00;4.60;;;4.27;;
30850;SDS011;17567;48.382;9.102;2023-05-15T10:32:02;5.50;;;5.00;;
30850;SDS011;17567;48.382;9.102;2023-05-15T10:37:04;4.80;;;4.50;;
30850;SDS011;17567;48.382;9.102;2023-05-15T10:42:05;5.73;;;5.23;;
30850;SDS011;17567;48.382;9.102;2023-05-15T10:47:07;5.30;;;4.80;;
30850;SDS011;17567;48.382;9.102;2023-05-15T10:52:08;4.70;;;3.80;;
30850;SDS011;17567;48.382;9.102;2023-05-15T10:57:09;4.93;;;3.10;;
30850;SDS011;17567;48.382;9.102;2023-05-15T11:02:23;3.10;;;2.90;;
30850;SDS011;17567;48.382;9.102;2023-05-15T11:07:26;2.07;;;1.97;;
30850;SDS011;17567;48.382;9.102;2023-05-15T11:12:32;3.13;;;2.17;;
30850;SDS011;17567;48.382;9.102;2023-05-15T11:18:03;2.77;;;2.00;;
30850;SDS011;17567;48.382;9.102;2023-05-15T11:23:05;4.03;;;2.20;;
30850;SDS011;17567;48.382;9.102;2023-05-15T11:28:13;2.73;;;2.03;;
30850;SDS011;17567;48.382;9.102;2023-05-15T11:33:23;2.30;;;2.10;;
30850;SDS011;17567;48.382;9.102;2023-05-15T11:38:30;2.30;;;2.10;;
30850;SDS011;17567;48.382;9.102;2023-05-15T11:43:37;3.77;;;2.47;;
30850;SDS011;17567;48.382;9.102;2023-05-15T11:53:41;3.10;;;2.33;;
30850;SDS011;17567;48.382;9.102;2023-05-15T11:58:48;2.47;;;2.27;;
30850;SDS011;17567;48.382;9.102;2023-05-15T12:03:50;3.47;;;2.07;;
30850;SDS011;17567;48.382;9.102;2023-05-15T12:08:53;3.63;;;3.10;;
30850;SDS011;17567;48.382;9.102;2023-05-15T12:13:53;3.37;;;3.17;;
30850;SDS011;17567;48.382;9.102;2023-05-15T12:18:57;3.60;;;3.30;;
30850;SDS011;17567;48.382;9.102;2023-05-15T12:23:58;4.53;;;4.13;;
30850;SDS011;17567;48.382;9.102;2023-05-15T12:28:59;5.23;;;3.77;;
30850;SDS011;17567;48.382;9.102;2023-05-15T12:34:00;3.70;;;3.40;;
30850;SDS011;17567;48.382;9.102;2023-05-15T12:39:04;4.23;;;3.83;;
30850;SDS011;17567;48.382;9.102;2023-05-15T12:44:14;3.60;;;3.30;;
30850;SDS011;17567;48.382;9.102;2023-05-15T12:49:22;3.57;;;3.23;;
30850;SDS011;17567;48.382;9.102;2023-05-15T12:54:22;3.80;;;3.50;;
30850;SDS011;17567;48.382;9.102;2023-05-15T12:59:23;3.73;;;3.43;;
30850;SDS011;17567;48.382;9.102;2023-05-15T13:04:24;3.53;;;3.23;;
30850;SDS011;17567;48.382;9.102;2023-05-15T13:09:24;4.27;;;3.80;;
30850;SDS011;17567;48.382;9.102;2023-05-15T13:14:26;4.90;;;3.90;;
30850;SDS011;17567;48.382;9.102;2023-05-15T13:19:28;3.57;;;3.20;;
30850;SDS011;17567;48.382;9.102;2023-05-15T13:24:32;3.50;;;3.30;;
30850;SDS011;17567;48.382;9.102;2023-05-15T13:29:33;3.70;;;3.20;;
30850;SDS011;17567;48.382;9.102;2023-05-15T13:34:33;3.70;;;3.13;;
30850;SDS011;17567;48.382;9.102;2023-05-15T13:39:34;2.93;;;2.73;;
30850;SDS011;17567;48.382;9.102;2023-05-15T13:44:35;3.50;;;3.20;;
30850;SDS011;17567;48.382;9.102;2023-05-15T13:49:36;3.33;;;3.13;;
30850;SDS011;17567;48.382;9.102;2023-05-15T13:54:37;5.93;;;3.10;;
30850;SDS011;17567;48.382;9.102;2023-05-15T13:59:38;3.23;;;2.83;;
30850;SDS011;17567;48.382;9.102;2023-05-15T14:04:39;3.00;;;2.80;;
30850;SDS011;17567;48.382;9.102;2023-05-15T14:09:39;4.60;;;2.80;;
30850;SDS011;17567;48.382;9.102;2023-05-15T14:14:40;2.67;;;2.47;;
30850;SDS011;17567;48.382;9.102;2023-05-15T14:19:41;3.00;;;2.80;;
30850;SDS011;17567;48.382;9.102;2023-05-15T14:24:42;3.17;;;2.93;;
30850;SDS011;17567;48.382;9.102;2023-05-15T14:29:42;5.90;;;3.20;;
30850;SDS011;17567;48.382;9.102;2023-05-15T14:34:43;3.20;;;3.00;;
30850;SDS011;17567;48.382;9.102;2023-05-15T14:39:46;3.70;;;3.40;;
30850;SDS011;17567;48.382;9.102;2023-05-15T14:44:47;3.80;;;3.27;;
30850;SDS011;17567;48.382;9.102;2023-05-15T14:49:48;3.53;;;3.23;;
30850;SDS011;17567;48.382;9.102;2023-05-15T14:54:48;3.10;;;2.80;;
30850;SDS011;17567;48.382;9.102;2023-05-15T14:59:49;3.00;;;2.80;;
30850;SDS011;17567;48.382;9.102;2023-05-15T15:04:50;3.50;;;3.20;;
30850;SDS011;17567;48.382;9.102;2023-05-15T15:09:50;3.73;;;2.70;;
30850;SDS011;17567;48.382;9.102;2023-05-15T15:14:51;3.20;;;2.50;;
30850;SDS011;17567;48.382;9.102;2023-05-15T15:19:51;2.93;;;2.63;;
30850;SDS011;17567;48.382;9.102;2023-05-15T15:24:52;2.57;;;2.37;;
30850;SDS011;17567;48.382;9.102;2023-05-15T15:29:53;2.70;;;2.50;;
30850;SDS011;17567;48.382;9.102;2023-05-15T15:34:55;4.03;;;2.20;;
30850;SDS011;17567;48.382;9.102;2023-05-15T15:39:56;2.90;;;2.20;;
30850;SDS011;17567;48.382;9.102;2023-05-15T15:44:58;3.10;;;2.10;;
30850;SDS011;17567;48.382;9.102;2023-05-15T15:50:02;2.60;;;2.37;;
30850;SDS011;17567;48.382;9.102;2023-05-15T15:55:03;2.50;;;2.30;;
30850;SDS011;17567;48.382;9.102;2023-05-15T16:00:04;2.70;;;2.50;;
30850;SDS011;17567;48.382;9.102;2023-05-15T16:05:07;2.90;;;2.70;;
30850;SDS011;17567;48.382;9.102;2023-05-15T16:10:08;2.90;;;2.70;;
30850;SDS011;17567;48.382;9.102;2023-05-15T16:15:14;2.50;;;2.40;;
30850;SDS011;17567;48.382;9.102;2023-05-15T16:20:16;3.07;;;2.60;;
30850;SDS011;17567;48.382;9.102;2023-05-15T16:25:16;2.50;;;2.30;;
30850;SDS011;17567;48.382;9.102;2023-05-15T16:30:18;2.70;;;2.50;;
30850;SDS011;17567;48.382;9.102;2023-05-15T16:35:19;2.90;;;2.70;;
30850;SDS011;17567;48.382;9.102;2023-05-15T16:40:21;2.63;;;2.43;;
30850;SDS011;17567;48.382;9.102;2023-05-15T16:45:21;10.23;;;3.70;;
30850;SDS011;17567;48.382;9.102;2023-05-15T16:50:22;3.50;;;3.30;;
30850;SDS011;17567;48.382;9.102;2023-05-15T16:55:23;3.03;;;2.83;;
30850;SDS011;17567;48.382;9.102;2023-05-15T17:00:25;5.13;;;3.43;;
30850;SDS011;17567;48.382;9.102;2023-05-15T17:05:25;3.57;;;3.07;;
30850;SDS011;17567;48.382;9.102;2023-05-15T17:10:26;5.33;;;3.20;;
30850;SDS011;17567;48.382;9.102;2023-05-15T17:15:28;3.80;;;3.50;;
30850;SDS011;17567;48.382;9.102;2023-05-15T17:20:29;6.50;;;4.27;;
30850;SDS011;17567;48.382;9.102;2023-05-15T17:25:29;4.20;;;3.90;;
30850;SDS011;17567;48.382;9.102;2023-05-15T17:30:30;4.60;;;4.20;;
30850;SDS011;17567;48.382;9.102;2023-05-15T17:35:31;5.37;;;4.80;;
30850;SDS011;17567;48.382;9.102;2023-05-15T17:40:31;5.37;;;4.53;;
30850;SDS011;17567;48.382;9.102;2023-05-15T17:45:32;4.27;;;3.87;;
30850;SDS011;17567;48.382;9.102;2023-05-15T17:50:33;5.90;;;5.30;;
30850;SDS011;17567;48.382;9.102;2023-05-15T17:55:37;7.27;;;5.43;;
30850;SDS011;17567;48.382;9.102;2023-05-15T18:00:37;5.50;;;4.97;;
30850;SDS011;17567;48.382;9.102;2023-05-15T18:05:38;4.73;;;4.37;;
30850;SDS011;17567;48.382;9.102;2023-05-15T18:10:45;4.80;;;4.40;;
30850;SDS011;17567;48.382;9.102;2023-05-15T18:15:45;4.77;;;4.37;;
30850;SDS011;17567;48.382;9.102;2023-05-15T18:20:46;5.00;;;4.60;;
30850;SDS011;17567;48.382;9.102;2023-05-15T18:25:47;4.57;;;4.20;;
30850;SDS011;17567;48.382;9.102;2023-05-15T18:30:47;5.97;;;4.43;;
30850;SDS011;17567;48.382;9.102;2023-05-15T18:35:49;6.17;;;5.67;;
30850;SDS011;17567;48.382;9.102;2023-05-15T18:40:50;4.73;;;4.13;;
30850;SDS011;17567;48.382;9.102;2023-05-15T18:45:52;7.33;;;4.83;;
30850;SDS011;17567;48.382;9.102;2023-05-15T18:50:53;7.50;;;5.10;;
30850;SDS011;17567;48.382;9.102;2023-05-15T18:55:54;7.70;;;6.90;;
30850;SDS011;17567;48.382;9.102;2023-05-15T19:00:55;5.43;;;4.90;;
30850;SDS011;17567;48.382;9.102;2023-05-15T19:05:55;4.83;;;4.43;;
30850;SDS011;17567;48.382;9.102;2023-05-15T19:10:58;8.20;;;4.43;;
30850;SDS011;17567;48.382;9.102;2023-05-15T19:15:59;4.70;;;4.30;;
30850;SDS011;17567;48.382;9.102;2023-05-15T19:20:59;4.57;;;4.17;;
30850;SDS011;17567;48.382;9.102;2023-05-15T19:26:00;4.73;;;4.33;;
30850;SDS011;17567;48.382;9.102;2023-05-15T19:31:01;5.10;;;4.70;;
30850;SDS011;17567;48.382;9.102;2023-05-15T19:36:03;6.50;;;5.50;;
30850;SDS011;17567;48.382;9.102;2023-05-15T19:41:04;6.03;;;5.40;;
30850;SDS011;17567;48.382;9.102;2023-05-15T19:46:05;4.70;;;4.40;;
30850;SDS011;17567;48.382;9.102;2023-05-15T19:51:06;5.03;;;3.63;;
30850;SDS011;17567;48.382;9.102;2023-05-15T19:56:06;6.43;;;4.30;;
30850;SDS011;17567;48.382;9.102;2023-05-15T20:01:07;5.10;;;4.70;;
30850;SDS011;17567;48.382;9.102;2023-05-15T20:06:07;4.30;;;4.00;;
30850;SDS011;17567;48.382;9.102;2023-05-15T20:11:09;3.97;;;3.67;;
30850;SDS011;17567;48.382;9.102;2023-05-15T20:16:11;3.53;;;3.23;;
30850;SDS011;17567;48.382;9.102;2023-05-15T20:21:13;3.07;;;2.87;;
30850;SDS011;17567;48.382;9.102;2023-05-15T20:26:14;4.30;;;4.00;;
30850;SDS011;17567;48.382;9.102;2023-05-15T20:31:16;4.67;;;3.73;;
30850;SDS011;17567;48.382;9.102;2023-05-15T20:36:16;9.37;;;4.70;;
30850;SDS011;17567;48.382;9.102;2023-05-15T20:41:17;5.13;;;4.63;;
30850;SDS011;17567;48.382;9.102;2023-05-15T20:46:18;4.63;;;4.23;;
30850;SDS011;17567;48.382;9.102;2023-05-15T20:51:18;6.80;;;6.10;;
30850;SDS011;17567;48.382;9.102;2023-05-15T20:56:21;5.77;;;5.20;;
30850;SDS011;17567;48.382;9.102;2023-05-15T21:01:21;5.17;;;4.47;;
30850;SDS011;17567;48.382;9.102;2023-05-15T21:06:22;4.87;;;4.20;;
30850;SDS011;17567;48.382;9.102;2023-05-15T21:11:23;4.30;;;3.90;;
30850;SDS011;17567;48.382;9.102;2023-05-15T21:16:23;5.00;;;4.50;;
30850;SDS011;17567;48.382;9.102;2023-05-15T21:21:24;4.20;;;3.90;;
30850;SDS011;17567;48.382;9.102;2023-05-15T21:26:25;4.60;;;4.20;;
30850;SDS011;17567;48.382;9.102;2023-05-15T21:31:27;6.50;;;5.90;;
30850;SDS011;17567;48.382;9.102;2023-05-15T21:36:27;6.10;;;5.50;;
30850;SDS011;17567;48.382;9.102;2023-05-15T21:41:28;5.23;;;4.67;;
30850;SDS011;17567;48.382;9.102;2023-05-15T21:46:29;5.87;;;5.10;;
30850;SDS011;17567;48.382;9.102;2023-05-15T21:51:32;5.93;;;5.40;;
30850;SDS011;17567;48.382;9.102;2023-05-15T21:56:33;6.50;;;5.53;;
30850;SDS011;17567;48.382;9.102;2023-05-15T22:01:34;5.33;;;4.93;;
30850;SDS011;17567;48.382;9.102;2023-05-15T22:06:35;5.40;;;5.00;;
30850;SDS011;17567;48.382;9.102;2023-05-15T22:11:36;5.20;;;4.70;;
30850;SDS011;17567;48.382;9.102;2023-05-15T22:16:36;5.23;;;4.80;;
30850;SDS011;17567;48.382;9.102;2023-05-15T22:21:37;6.73;;;4.63;;
30850;SDS011;17567;48.382;9.102;2023-05-15T22:26:38;5.97;;;5.47;;
30850;SDS011;17567;48.382;9.102;2023-05-15T22:31:38;6.27;;;5.23;;
30850;SDS011;17567;48.382;9.102;2023-05-15T22:36:39;4.23;;;3.90;;
30850;SDS011;17567;48.382;9.102;2023-05-15T22:41:40;5.07;;;4.60;;
30850;SDS011;17567;48.382;9.102;2023-05-15T22:46:41;5.47;;;4.97;;
30850;SDS011;17567;48.382;9.102;2023-05-15T22:51:42;5.80;;;5.20;;
30850;SDS011;17567;48.382;9.102;2023-05-15T22:56:43;5.93;;;4.70;;
30850;SDS011;17567;48.382;9.102;2023-05-15T23:01:43;5.87;;;5.03;;
30850;SDS011;17567;48.382;9.102;2023-05-15T23:06:45;5.07;;;4.70;;
30850;SDS011;17567;48.382;9.102;2023-05-15T23:11:45;5.70;;;5.17;;
30850;SDS011;17567;48.382;9.102;2023-05-15T23:16:46;6.93;;;4.70;;
30850;SDS011;17567;48.382;9.102;2023-05-15T23:21:48;8.17;;;7.37;;
30850;SDS011;17567;48.382;9.102;2023-05-15T23:26:49;6.93;;;6.20;;
30850;SDS011;17567;48.382;9.102;2023-05-15T23:31:50;7.40;;;6.70;;
30850;SDS011;17567;48.382;9.102;2023-05-15T23:36:50;6.90;;;6.20;;
30850;SDS011;17567;48.382;9.102;2023-05-15T23:41:51;6.17;;;5.60;;
30850;SDS011;17567;48.382;9.102;2023-05-15T23:46:51;5.00;;;4.60;;
30850;SDS011;17567;48.382;9.102;2023-05-15T23:51:52;5.27;;;4.87;;
30850;SDS011;17567;48.382;9.102;2023-05-15T23:56:52;5.53;;;5.03;;
